sensor_id;sensor_type;location;lat;lon;timestamp;P1;durP1;ratioP1;P2;durP2;ratioP2
32533;SDS011;18973;48.580;8.912;2023-08-06T00:02:13;3.40;;;2.15;;
32533;SDS011;18973;48.580;8.912;2023-08-06T00:04:39;2.95;;;2.17;;
32533;SDS011;18973;48.580;8.912;2023-08-06T00:07:05;3.88;;;2.40;;
32533;SDS011;18973;48.580;8.912;2023-08-06T00:09:30;3.15;;;1.95;;
32533;SDS011;18973;48.580;8.912;2023-08-06T00:11:56;5.28;;;2.17;;
32533;SDS011;18973;48.580;8.912;2023-08-06T00:14:22;3.83;;;2.65;;
32533;SDS011;18973;48.580;8.912;2023-08-06T00:16:47;3.25;;;2.33;;
32533;SDS011;18973;48.580;8.912;2023-08-06T00:19:13;2.90;;;2.28;;
32533;SDS011;18973;48.580;8.912;2023-08-06T00:21:39;3.17;;;2.50;;
32533;SDS011;18973;48.580;8.912;2023-08-06T00:24:04;4.65;;;2.70;;
32533;SDS011;18973;48.580;8.912;2023-08-06T00:26:30;4.50;;;2.72;;
32533;SDS011;18973;48.580;8.912;2023-08-06T00:28:56;3.38;;;2.70;;
32533;SDS011;18973;48.580;8.912;2023-08-06T00:31:21;2.83;;;2.40;;
32533;SDS011;18973;48.580;8.912;2023-08-06T00:33:47;4.80;;;2.78;;
32533;SDS011;18973;48.580;8.912;2023-08-06T00:36:13;5.10;;;3.40;;
32533;SDS011;18973;48.580;8.912;2023-08-06T00:38:38;4.85;;;2.60;;
32533;SDS011;18973;48.580;8.912;2023-08-06T00:41:04;2.75;;;2.55;;
32533;SDS011;18973;48.580;8.912;2023-08-06T00:43:29;5.35;;;3.00;;
32533;SDS011;18973;48.580;8.912;2023-08-06T00:45:55;3.40;;;3.10;;
32533;SDS011;18973;48.580;8.912;2023-08-06T00:48:21;3.78;;;2.83;;
32533;SDS011;18973;48.580;8.912;2023-08-06T00:50:47;3.67;;;2.80;;
32533;SDS011;18973;48.580;8.912;2023-08-06T00:53:13;4.80;;;3.10;;
32533;SDS011;18973;48.580;8.912;2023-08-06T00:55:39;2.88;;;2.50;;
32533;SDS011;18973;48.580;8.912;2023-08-06T00:58:05;4.03;;;3.13;;
32533;SDS011;18973;48.580;8.912;2023-08-06T01:00:31;3.97;;;2.53;;
32533;SDS011;18973;48.580;8.912;2023-08-06T01:02:56;4.63;;;2.80;;
32533;SDS011;18973;48.580;8.912;2023-08-06T01:05:22;4.30;;;2.63;;
32533;SDS011;18973;48.580;8.912;2023-08-06T01:15:53;4.40;;;2.35;;
32533;SDS011;18973;48.580;8.912;2023-08-06T01:18:23;2.75;;;2.45;;
32533;SDS011;18973;48.580;8.912;2023-08-06T01:20:49;2.85;;;2.22;;
32533;SDS011;18973;48.580;8.912;2023-08-06T01:23:18;3.13;;;2.50;;
32533;SDS011;18973;48.580;8.912;2023-08-06T01:25:49;4.78;;;3.00;;
32533;SDS011;18973;48.580;8.912;2023-08-06T01:28:27;4.82;;;2.67;;
32533;SDS011;18973;48.580;8.912;2023-08-06T01:31:04;3.45;;;2.15;;
32533;SDS011;18973;48.580;8.912;2023-08-06T01:33:35;5.95;;;2.58;;
32533;SDS011;18973;48.580;8.912;2023-08-06T01:36:04;4.88;;;2.65;;
32533;SDS011;18973;48.580;8.912;2023-08-06T01:38:31;4.93;;;2.47;;
32533;SDS011;18973;48.580;8.912;2023-08-06T01:40:56;3.03;;;2.22;;
32533;SDS011;18973;48.580;8.912;2023-08-06T01:43:22;4.18;;;2.58;;
32533;SDS011;18973;48.580;8.912;2023-08-06T01:45:48;7.88;;;2.90;;
32533;SDS011;18973;48.580;8.912;2023-08-06T01:48:13;2.30;;;2.08;;
32533;SDS011;18973;48.580;8.912;2023-08-06T01:50:39;3.92;;;2.40;;
32533;SDS011;18973;48.580;8.912;2023-08-06T01:53:04;4.82;;;2.00;;
32533;SDS011;18973;48.580;8.912;2023-08-06T01:55:30;4.10;;;2.70;;
32533;SDS011;18973;48.580;8.912;2023-08-06T01:57:56;4.65;;;2.25;;
32533;SDS011;18973;48.580;8.912;2023-08-06T02:00:21;2.33;;;2.10;;
32533;SDS011;18973;48.580;8.912;2023-08-06T02:02:47;4.25;;;2.10;;
32533;SDS011;18973;48.580;8.912;2023-08-06T02:05:13;5.00;;;1.85;;
32533;SDS011;18973;48.580;8.912;2023-08-06T02:07:38;3.50;;;2.10;;
32533;SDS011;18973;48.580;8.912;2023-08-06T02:10:04;4.00;;;2.00;;
32533;SDS011;18973;48.580;8.912;2023-08-06T02:12:30;3.47;;;1.90;;
32533;SDS011;18973;48.580;8.912;2023-08-06T02:14:56;3.35;;;1.92;;
32533;SDS011;18973;48.580;8.912;2023-08-06T02:17:22;2.67;;;1.73;;
32533;SDS011;18973;48.580;8.912;2023-08-06T02:19:47;4.55;;;1.92;;
32533;SDS011;18973;48.580;8.912;2023-08-06T02:22:13;2.92;;;2.63;;
32533;SDS011;18973;48.580;8.912;2023-08-06T02:24:40;2.17;;;1.98;;
32533;SDS011;18973;48.580;8.912;2023-08-06T02:27:05;2.78;;;1.98;;
32533;SDS011;18973;48.580;8.912;2023-08-06T02:29:31;2.83;;;1.85;;
32533;SDS011;18973;48.580;8.912;2023-08-06T02:31:57;2.78;;;2.22;;
32533;SDS011;18973;48.580;8.912;2023-08-06T02:34:22;5.53;;;2.13;;
32533;SDS011;18973;48.580;8.912;2023-08-06T02:36:48;2.10;;;1.90;;
32533;SDS011;18973;48.580;8.912;2023-08-06T02:39:14;2.13;;;1.58;;
32533;SDS011;18973;48.580;8.912;2023-08-06T02:41:39;3.95;;;1.90;;
32533;SDS011;18973;48.580;8.912;2023-08-06T02:44:05;2.08;;;1.88;;
32533;SDS011;18973;48.580;8.912;2023-08-06T02:46:31;5.35;;;2.00;;
32533;SDS011;18973;48.580;8.912;2023-08-06T02:48:56;3.47;;;2.00;;
32533;SDS011;18973;48.580;8.912;2023-08-06T02:51:22;4.38;;;2.17;;
32533;SDS011;18973;48.580;8.912;2023-08-06T02:53:48;2.20;;;1.95;;
32533;SDS011;18973;48.580;8.912;2023-08-06T02:56:14;3.10;;;2.17;;
32533;SDS011;18973;48.580;8.912;2023-08-06T02:58:40;2.13;;;1.73;;
32533;SDS011;18973;48.580;8.912;2023-08-06T03:01:06;4.20;;;1.92;;
32533;SDS011;18973;48.580;8.912;2023-08-06T03:03:32;4.07;;;2.30;;
32533;SDS011;18973;48.580;8.912;2023-08-06T03:05:58;4.80;;;1.92;;
32533;SDS011;18973;48.580;8.912;2023-08-06T03:08:25;2.63;;;2.03;;
32533;SDS011;18973;48.580;8.912;2023-08-06T03:10:51;2.85;;;2.03;;
32533;SDS011;18973;48.580;8.912;2023-08-06T03:13:17;4.15;;;2.05;;
32533;SDS011;18973;48.580;8.912;2023-08-06T03:15:43;4.50;;;2.13;;
32533;SDS011;18973;48.580;8.912;2023-08-06T03:18:16;6.10;;;2.25;;
32533;SDS011;18973;48.580;8.912;2023-08-06T03:20:42;3.45;;;1.98;;
32533;SDS011;18973;48.580;8.912;2023-08-06T03:23:07;5.47;;;1.98;;
32533;SDS011;18973;48.580;8.912;2023-08-06T03:25:35;2.90;;;1.70;;
32533;SDS011;18973;48.580;8.912;2023-08-06T03:28:01;6.63;;;2.08;;
32533;SDS011;18973;48.580;8.912;2023-08-06T03:30:27;4.88;;;1.98;;
32533;SDS011;18973;48.580;8.912;2023-08-06T03:32:53;2.90;;;1.90;;
32533;SDS011;18973;48.580;8.912;2023-08-06T03:35:18;4.57;;;1.67;;
32533;SDS011;18973;48.580;8.912;2023-08-06T03:37:44;4.00;;;2.03;;
32533;SDS011;18973;48.580;8.912;2023-08-06T03:40:10;4.88;;;2.33;;
32533;SDS011;18973;48.580;8.912;2023-08-06T03:42:36;3.38;;;1.73;;
32533;SDS011;18973;48.580;8.912;2023-08-06T03:45:01;2.60;;;1.50;;
32533;SDS011;18973;48.580;8.912;2023-08-06T03:47:28;1.90;;;1.50;;
32533;SDS011;18973;48.580;8.912;2023-08-06T03:49:53;2.40;;;1.75;;
32533;SDS011;18973;48.580;8.912;2023-08-06T03:52:19;5.57;;;2.03;;
32533;SDS011;18973;48.580;8.912;2023-08-06T03:54:45;5.05;;;2.60;;
32533;SDS011;18973;48.580;8.912;2023-08-06T03:57:10;2.35;;;1.77;;
32533;SDS011;18973;48.580;8.912;2023-08-06T03:59:36;4.20;;;1.90;;
32533;SDS011;18973;48.580;8.912;2023-08-06T04:02:02;5.15;;;2.47;;
32533;SDS011;18973;48.580;8.912;2023-08-06T04:04:28;2.78;;;1.77;;
32533;SDS011;18973;48.580;8.912;2023-08-06T04:06:53;2.30;;;1.63;;
32533;SDS011;18973;48.580;8.912;2023-08-06T04:09:19;2.78;;;1.92;;
32533;SDS011;18973;48.580;8.912;2023-08-06T04:11:45;3.50;;;1.70;;
32533;SDS011;18973;48.580;8.912;2023-08-06T04:14:10;5.28;;;1.77;;
32533;SDS011;18973;48.580;8.912;2023-08-06T04:16:36;2.28;;;1.30;;
32533;SDS011;18973;48.580;8.912;2023-08-06T04:19:02;2.97;;;1.50;;
32533;SDS011;18973;48.580;8.912;2023-08-06T04:21:27;3.53;;;1.40;;
32533;SDS011;18973;48.580;8.912;2023-08-06T04:23:53;3.47;;;1.40;;
32533;SDS011;18973;48.580;8.912;2023-08-06T04:26:18;5.97;;;1.40;;
32533;SDS011;18973;48.580;8.912;2023-08-06T04:28:44;2.92;;;1.50;;
32533;SDS011;18973;48.580;8.912;2023-08-06T04:31:10;3.33;;;1.40;;
32533;SDS011;18973;48.580;8.912;2023-08-06T04:33:35;2.45;;;0.93;;
32533;SDS011;18973;48.580;8.912;2023-08-06T04:36:01;4.38;;;1.45;;
32533;SDS011;18973;48.580;8.912;2023-08-06T04:38:27;1.90;;;1.05;;
32533;SDS011;18973;48.580;8.912;2023-08-06T04:40:53;1.48;;;0.75;;
32533;SDS011;18973;48.580;8.912;2023-08-06T04:43:19;3.03;;;1.08;;
32533;SDS011;18973;48.580;8.912;2023-08-06T04:45:48;1.63;;;0.90;;
32533;SDS011;18973;48.580;8.912;2023-08-06T04:48:14;2.38;;;0.93;;
32533;SDS011;18973;48.580;8.912;2023-08-06T04:50:46;2.40;;;0.88;;
32533;SDS011;18973;48.580;8.912;2023-08-06T04:53:13;2.03;;;1.08;;
32533;SDS011;18973;48.580;8.912;2023-08-06T04:55:39;2.90;;;1.10;;
32533;SDS011;18973;48.580;8.912;2023-08-06T04:58:06;4.07;;;1.08;;
32533;SDS011;18973;48.580;8.912;2023-08-06T05:00:32;3.10;;;1.08;;
32533;SDS011;18973;48.580;8.912;2023-08-06T05:02:59;1.88;;;0.85;;
32533;SDS011;18973;48.580;8.912;2023-08-06T05:05:26;6.40;;;0.98;;
32533;SDS011;18973;48.580;8.912;2023-08-06T05:07:53;2.03;;;0.88;;
32533;SDS011;18973;48.580;8.912;2023-08-06T05:10:20;1.42;;;0.70;;
32533;SDS011;18973;48.580;8.912;2023-08-06T05:12:45;2.67;;;0.77;;
32533;SDS011;18973;48.580;8.912;2023-08-06T05:15:11;1.08;;;0.80;;
32533;SDS011;18973;48.580;8.912;2023-08-06T05:17:36;1.95;;;0.57;;
32533;SDS011;18973;48.580;8.912;2023-08-06T05:20:02;3.50;;;0.82;;
32533;SDS011;18973;48.580;8.912;2023-08-06T05:22:28;1.85;;;0.60;;
32533;SDS011;18973;48.580;8.912;2023-08-06T05:24:54;2.08;;;0.60;;
32533;SDS011;18973;48.580;8.912;2023-08-06T05:27:19;2.58;;;1.02;;
32533;SDS011;18973;48.580;8.912;2023-08-06T05:29:45;1.73;;;0.90;;
32533;SDS011;18973;48.580;8.912;2023-08-06T05:32:11;4.65;;;0.63;;
32533;SDS011;18973;48.580;8.912;2023-08-06T05:34:36;4.32;;;0.93;;
32533;SDS011;18973;48.580;8.912;2023-08-06T05:37:02;2.10;;;0.55;;
32533;SDS011;18973;48.580;8.912;2023-08-06T05:39:28;2.00;;;0.63;;
32533;SDS011;18973;48.580;8.912;2023-08-06T05:41:54;5.78;;;0.80;;
32533;SDS011;18973;48.580;8.912;2023-08-06T05:44:20;2.63;;;1.05;;
32533;SDS011;18973;48.580;8.912;2023-08-06T05:46:46;0.82;;;0.60;;
32533;SDS011;18973;48.580;8.912;2023-08-06T05:49:12;5.47;;;1.02;;
32533;SDS011;18973;48.580;8.912;2023-08-06T05:51:39;3.47;;;0.88;;
32533;SDS011;18973;48.580;8.912;2023-08-06T05:54:04;2.88;;;1.13;;
32533;SDS011;18973;48.580;8.912;2023-08-06T05:56:30;3.78;;;0.73;;
32533;SDS011;18973;48.580;8.912;2023-08-06T05:58:56;3.85;;;1.23;;
32533;SDS011;18973;48.580;8.912;2023-08-06T06:01:21;2.80;;;0.88;;
32533;SDS011;18973;48.580;8.912;2023-08-06T06:03:47;3.85;;;0.80;;
32533;SDS011;18973;48.580;8.912;2023-08-06T06:06:13;4.97;;;0.80;;
32533;SDS011;18973;48.580;8.912;2023-08-06T06:08:38;1.17;;;0.75;;
32533;SDS011;18973;48.580;8.912;2023-08-06T06:11:04;3.90;;;0.73;;
32533;SDS011;18973;48.580;8.912;2023-08-06T06:13:30;3.80;;;0.80;;
32533;SDS011;18973;48.580;8.912;2023-08-06T06:15:55;2.17;;;0.70;;
32533;SDS011;18973;48.580;8.912;2023-08-06T06:18:21;3.20;;;0.88;;
32533;SDS011;18973;48.580;8.912;2023-08-06T06:20:47;3.38;;;0.80;;
32533;SDS011;18973;48.580;8.912;2023-08-06T06:23:13;2.70;;;0.63;;
32533;SDS011;18973;48.580;8.912;2023-08-06T06:25:57;2.28;;;1.10;;
32533;SDS011;18973;48.580;8.912;2023-08-06T06:28:23;4.13;;;0.88;;
32533;SDS011;18973;48.580;8.912;2023-08-06T06:30:49;2.38;;;0.93;;
32533;SDS011;18973;48.580;8.912;2023-08-06T06:33:15;4.38;;;0.88;;
32533;SDS011;18973;48.580;8.912;2023-08-06T06:35:40;1.77;;;0.68;;
32533;SDS011;18973;48.580;8.912;2023-08-06T06:38:06;4.63;;;0.82;;
32533;SDS011;18973;48.580;8.912;2023-08-06T06:40:32;4.38;;;0.93;;
32533;SDS011;18973;48.580;8.912;2023-08-06T06:42:58;3.08;;;0.70;;
32533;SDS011;18973;48.580;8.912;2023-08-06T06:45:26;2.70;;;0.63;;
32533;SDS011;18973;48.580;8.912;2023-08-06T06:47:52;1.48;;;0.50;;
32533;SDS011;18973;48.580;8.912;2023-08-06T06:50:18;1.42;;;0.80;;
32533;SDS011;18973;48.580;8.912;2023-08-06T06:52:43;1.23;;;0.73;;
32533;SDS011;18973;48.580;8.912;2023-08-06T06:55:09;2.42;;;0.50;;
32533;SDS011;18973;48.580;8.912;2023-08-06T06:57:34;0.88;;;0.80;;
32533;SDS011;18973;48.580;8.912;2023-08-06T07:00:00;3.13;;;1.48;;
32533;SDS011;18973;48.580;8.912;2023-08-06T07:02:26;0.50;;;0.30;;
32533;SDS011;18973;48.580;8.912;2023-08-06T07:04:52;1.13;;;0.40;;
32533;SDS011;18973;48.580;8.912;2023-08-06T07:07:17;0.52;;;0.50;;
32533;SDS011;18973;48.580;8.912;2023-08-06T07:09:43;0.57;;;0.30;;
32533;SDS011;18973;48.580;8.912;2023-08-06T07:12:09;1.65;;;0.28;;
32533;SDS011;18973;48.580;8.912;2023-08-06T07:14:35;1.55;;;0.40;;
32533;SDS011;18973;48.580;8.912;2023-08-06T07:17:01;0.30;;;0.30;;
32533;SDS011;18973;48.580;8.912;2023-08-06T07:19:26;3.50;;;0.50;;
32533;SDS011;18973;48.580;8.912;2023-08-06T07:21:53;2.40;;;0.30;;
32533;SDS011;18973;48.580;8.912;2023-08-06T07:24:18;0.80;;;0.10;;
32533;SDS011;18973;48.580;8.912;2023-08-06T07:26:44;0.45;;;0.20;;
32533;SDS011;18973;48.580;8.912;2023-08-06T07:29:10;0.20;;;0.20;;
32533;SDS011;18973;48.580;8.912;2023-08-06T07:31:36;0.30;;;0.30;;
32533;SDS011;18973;48.580;8.912;2023-08-06T07:34:01;0.30;;;0.20;;
32533;SDS011;18973;48.580;8.912;2023-08-06T07:36:27;0.45;;;0.28;;
32533;SDS011;18973;48.580;8.912;2023-08-06T07:38:53;0.75;;;0.20;;
32533;SDS011;18973;48.580;8.912;2023-08-06T07:41:24;1.02;;;0.40;;
32533;SDS011;18973;48.580;8.912;2023-08-06T07:43:50;1.30;;;0.40;;
32533;SDS011;18973;48.580;8.912;2023-08-06T07:46:15;1.75;;;0.30;;
32533;SDS011;18973;48.580;8.912;2023-08-06T07:48:41;0.20;;;0.20;;
32533;SDS011;18973;48.580;8.912;2023-08-06T07:51:07;0.70;;;0.50;;
32533;SDS011;18973;48.580;8.912;2023-08-06T07:53:33;0.20;;;0.20;;
32533;SDS011;18973;48.580;8.912;2023-08-06T07:55:58;1.35;;;0.25;;
32533;SDS011;18973;48.580;8.912;2023-08-06T07:58:26;0.32;;;0.20;;
32533;SDS011;18973;48.580;8.912;2023-08-06T08:00:54;0.20;;;0.20;;
32533;SDS011;18973;48.580;8.912;2023-08-06T08:03:20;0.52;;;0.20;;
32533;SDS011;18973;48.580;8.912;2023-08-06T08:05:45;0.38;;;0.30;;
32533;SDS011;18973;48.580;8.912;2023-08-06T08:08:11;3.08;;;0.30;;
32533;SDS011;18973;48.580;8.912;2023-08-06T08:10:37;0.20;;;0.20;;
32533;SDS011;18973;48.580;8.912;2023-08-06T08:13:03;0.20;;;0.20;;
32533;SDS011;18973;48.580;8.912;2023-08-06T08:15:30;0.40;;;0.20;;
32533;SDS011;18973;48.580;8.912;2023-08-06T08:17:59;0.70;;;0.20;;
32533;SDS011;18973;48.580;8.912;2023-08-06T08:20:26;0.20;;;0.20;;
32533;SDS011;18973;48.580;8.912;2023-08-06T08:22:56;1.05;;;0.30;;
32533;SDS011;18973;48.580;8.912;2023-08-06T08:25:23;2.85;;;0.40;;
32533;SDS011;18973;48.580;8.912;2023-08-06T08:27:48;0.47;;;0.30;;
32533;SDS011;18973;48.580;8.912;2023-08-06T08:30:14;2.72;;;0.30;;
32533;SDS011;18973;48.580;8.912;2023-08-06T08:32:40;3.53;;;0.38;;
32533;SDS011;18973;48.580;8.912;2023-08-06T08:35:05;0.57;;;0.17;;
32533;SDS011;18973;48.580;8.912;2023-08-06T08:37:31;0.20;;;0.20;;
32533;SDS011;18973;48.580;8.912;2023-08-06T08:39:57;0.60;;;0.20;;
32533;SDS011;18973;48.580;8.912;2023-08-06T08:42:23;0.50;;;0.10;;
32533;SDS011;18973;48.580;8.912;2023-08-06T08:44:49;0.40;;;0.20;;
32533;SDS011;18973;48.580;8.912;2023-08-06T08:47:15;0.20;;;0.20;;
32533;SDS011;18973;48.580;8.912;2023-08-06T08:49:41;0.20;;;0.20;;
32533;SDS011;18973;48.580;8.912;2023-08-06T08:52:08;1.42;;;0.80;;
32533;SDS011;18973;48.580;8.912;2023-08-06T08:54:38;0.52;;;0.45;;
32533;SDS011;18973;48.580;8.912;2023-08-06T08:57:04;0.50;;;0.32;;
32533;SDS011;18973;48.580;8.912;2023-08-06T08:59:32;0.45;;;0.40;;
32533;SDS011;18973;48.580;8.912;2023-08-06T09:02:01;1.20;;;0.15;;
32533;SDS011;18973;48.580;8.912;2023-08-06T09:04:28;0.22;;;0.20;;
32533;SDS011;18973;48.580;8.912;2023-08-06T09:06:56;0.73;;;0.63;;
32533;SDS011;18973;48.580;8.912;2023-08-06T09:09:28;0.20;;;0.20;;
32533;SDS011;18973;48.580;8.912;2023-08-06T09:12:00;2.35;;;0.20;;
32533;SDS011;18973;48.580;8.912;2023-08-06T09:14:27;0.28;;;0.20;;
32533;SDS011;18973;48.580;8.912;2023-08-06T09:16:53;1.05;;;0.20;;
32533;SDS011;18973;48.580;8.912;2023-08-06T09:19:20;0.45;;;0.30;;
32533;SDS011;18973;48.580;8.912;2023-08-06T09:21:46;0.80;;;0.20;;
32533;SDS011;18973;48.580;8.912;2023-08-06T09:24:15;1.98;;;0.30;;
32533;SDS011;18973;48.580;8.912;2023-08-06T09:26:42;0.25;;;0.20;;
32533;SDS011;18973;48.580;8.912;2023-08-06T09:29:10;0.47;;;0.20;;
32533;SDS011;18973;48.580;8.912;2023-08-06T09:31:46;0.35;;;0.10;;
32533;SDS011;18973;48.580;8.912;2023-08-06T09:34:17;0.23;;;0.20;;
32533;SDS011;18973;48.580;8.912;2023-08-06T09:36:51;0.10;;;0.10;;
32533;SDS011;18973;48.580;8.912;2023-08-06T09:39:21;0.60;;;0.20;;
32533;SDS011;18973;48.580;8.912;2023-08-06T09:41:55;1.75;;;0.47;;
32533;SDS011;18973;48.580;8.912;2023-08-06T09:44:26;0.20;;;0.20;;
32533;SDS011;18973;48.580;8.912;2023-08-06T09:47:00;0.25;;;0.20;;
32533;SDS011;18973;48.580;8.912;2023-08-06T09:49:28;0.20;;;0.20;;
32533;SDS011;18973;48.580;8.912;2023-08-06T09:51:56;0.45;;;0.30;;
32533;SDS011;18973;48.580;8.912;2023-08-06T09:54:25;1.75;;;0.30;;
32533;SDS011;18973;48.580;8.912;2023-08-06T09:56:55;1.40;;;0.55;;
32533;SDS011;18973;48.580;8.912;2023-08-06T09:59:24;0.20;;;0.20;;
32533;SDS011;18973;48.580;8.912;2023-08-06T10:01:51;1.02;;;0.35;;
32533;SDS011;18973;48.580;8.912;2023-08-06T10:04:20;0.57;;;0.20;;
32533;SDS011;18973;48.580;8.912;2023-08-06T10:06:47;0.52;;;0.30;;
32533;SDS011;18973;48.580;8.912;2023-08-06T10:09:13;4.30;;;0.60;;
32533;SDS011;18973;48.580;8.912;2023-08-06T10:11:39;2.67;;;0.75;;
32533;SDS011;18973;48.580;8.912;2023-08-06T10:16:36;1.05;;;0.20;;
32533;SDS011;18973;48.580;8.912;2023-08-06T10:19:05;0.30;;;0.20;;
32533;SDS011;18973;48.580;8.912;2023-08-06T10:21:34;1.40;;;0.30;;
32533;SDS011;18973;48.580;8.912;2023-08-06T10:24:00;0.22;;;0.20;;
32533;SDS011;18973;48.580;8.912;2023-08-06T10:26:29;0.10;;;0.10;;
32533;SDS011;18973;48.580;8.912;2023-08-06T10:28:55;5.78;;;2.78;;
32533;SDS011;18973;48.580;8.912;2023-08-06T10:32:07;9.10;;;4.53;;
32533;SDS011;18973;48.580;8.912;2023-08-06T10:34:20;2.20;;;1.05;;
32533;SDS011;18973;48.580;8.912;2023-08-06T10:36:46;1.00;;;0.60;;
32533;SDS011;18973;48.580;8.912;2023-08-06T10:39:15;1.13;;;0.60;;
32533;SDS011;18973;48.580;8.912;2023-08-06T10:41:42;3.25;;;0.60;;
32533;SDS011;18973;48.580;8.912;2023-08-06T10:44:09;0.15;;;0.15;;
32533;SDS011;18973;48.580;8.912;2023-08-06T10:46:35;0.43;;;0.20;;
32533;SDS011;18973;48.580;8.912;2023-08-06T10:49:01;1.27;;;0.20;;
32533;SDS011;18973;48.580;8.912;2023-08-06T10:51:28;0.20;;;0.20;;
32533;SDS011;18973;48.580;8.912;2023-08-06T10:53:54;0.90;;;0.30;;
32533;SDS011;18973;48.580;8.912;2023-08-06T10:56:21;1.17;;;0.30;;
32533;SDS011;18973;48.580;8.912;2023-08-06T10:58:48;0.20;;;0.20;;
32533;SDS011;18973;48.580;8.912;2023-08-06T11:01:15;0.50;;;0.20;;
32533;SDS011;18973;48.580;8.912;2023-08-06T11:03:41;1.85;;;0.28;;
32533;SDS011;18973;48.580;8.912;2023-08-06T11:06:08;0.75;;;0.30;;
32533;SDS011;18973;48.580;8.912;2023-08-06T11:08:35;0.20;;;0.20;;
32533;SDS011;18973;48.580;8.912;2023-08-06T11:11:09;0.85;;;0.20;;
32533;SDS011;18973;48.580;8.912;2023-08-06T11:13:37;2.22;;;0.30;;
32533;SDS011;18973;48.580;8.912;2023-08-06T11:16:07;0.20;;;0.17;;
32533;SDS011;18973;48.580;8.912;2023-08-06T11:18:34;0.57;;;0.30;;
32533;SDS011;18973;48.580;8.912;2023-08-06T11:21:00;1.08;;;0.28;;
32533;SDS011;18973;48.580;8.912;2023-08-06T11:23:27;1.05;;;0.28;;
32533;SDS011;18973;48.580;8.912;2023-08-06T11:25:54;0.20;;;0.20;;
32533;SDS011;18973;48.580;8.912;2023-08-06T11:28:20;5.47;;;1.00;;
32533;SDS011;18973;48.580;8.912;2023-08-06T11:30:47;1.17;;;0.32;;
32533;SDS011;18973;48.580;8.912;2023-08-06T11:33:13;1.00;;;0.40;;
32533;SDS011;18973;48.580;8.912;2023-08-06T11:35:38;0.15;;;0.15;;
32533;SDS011;18973;48.580;8.912;2023-08-06T11:38:05;0.20;;;0.20;;
32533;SDS011;18973;48.580;8.912;2023-08-06T11:40:32;0.45;;;0.30;;
32533;SDS011;18973;48.580;8.912;2023-08-06T11:42:58;2.65;;;0.25;;
32533;SDS011;18973;48.580;8.912;2023-08-06T11:45:24;0.45;;;0.40;;
32533;SDS011;18973;48.580;8.912;2023-08-06T11:47:50;0.60;;;0.40;;
32533;SDS011;18973;48.580;8.912;2023-08-06T11:50:27;0.63;;;0.30;;
32533;SDS011;18973;48.580;8.912;2023-08-06T11:52:57;1.75;;;0.25;;
32533;SDS011;18973;48.580;8.912;2023-08-06T11:55:24;0.30;;;0.30;;
32533;SDS011;18973;48.580;8.912;2023-08-06T11:57:50;0.40;;;0.30;;
32533;SDS011;18973;48.580;8.912;2023-08-06T12:00:16;0.88;;;0.50;;
32533;SDS011;18973;48.580;8.912;2023-08-06T12:02:45;0.57;;;0.57;;
32533;SDS011;18973;48.580;8.912;2023-08-06T12:07:41;0.60;;;0.52;;
32533;SDS011;18973;48.580;8.912;2023-08-06T12:10:14;1.08;;;0.70;;
32533;SDS011;18973;48.580;8.912;2023-08-06T12:12:41;1.90;;;0.80;;
32533;SDS011;18973;48.580;8.912;2023-08-06T12:15:07;1.70;;;1.02;;
32533;SDS011;18973;48.580;8.912;2023-08-06T12:17:34;1.63;;;0.80;;
32533;SDS011;18973;48.580;8.912;2023-08-06T12:20:01;2.45;;;1.40;;
32533;SDS011;18973;48.580;8.912;2023-08-06T12:22:29;3.35;;;1.00;;
32533;SDS011;18973;48.580;8.912;2023-08-06T12:24:59;1.30;;;0.95;;
32533;SDS011;18973;48.580;8.912;2023-08-06T12:27:26;2.13;;;0.98;;
32533;SDS011;18973;48.580;8.912;2023-08-06T12:29:51;3.35;;;1.17;;
32533;SDS011;18973;48.580;8.912;2023-08-06T12:32:17;3.08;;;0.70;;
32533;SDS011;18973;48.580;8.912;2023-08-06T12:34:44;1.83;;;0.90;;
32533;SDS011;18973;48.580;8.912;2023-08-06T12:37:10;0.63;;;0.63;;
32533;SDS011;18973;48.580;8.912;2023-08-06T12:39:36;2.53;;;0.88;;
32533;SDS011;18973;48.580;8.912;2023-08-06T12:42:03;1.42;;;0.90;;
32533;SDS011;18973;48.580;8.912;2023-08-06T12:44:30;2.08;;;0.88;;
32533;SDS011;18973;48.580;8.912;2023-08-06T12:46:56;1.40;;;0.60;;
32533;SDS011;18973;48.580;8.912;2023-08-06T12:49:22;1.25;;;0.52;;
32533;SDS011;18973;48.580;8.912;2023-08-06T12:51:48;1.88;;;0.60;;
32533;SDS011;18973;48.580;8.912;2023-08-06T12:54:18;0.40;;;0.40;;
32533;SDS011;18973;48.580;8.912;2023-08-06T12:56:47;2.08;;;0.45;;
32533;SDS011;18973;48.580;8.912;2023-08-06T12:59:16;1.73;;;0.40;;
32533;SDS011;18973;48.580;8.912;2023-08-06T13:01:42;0.63;;;0.50;;
32533;SDS011;18973;48.580;8.912;2023-08-06T13:04:09;1.10;;;0.40;;
32533;SDS011;18973;48.580;8.912;2023-08-06T13:06:36;0.73;;;0.50;;
32533;SDS011;18973;48.580;8.912;2023-08-06T13:09:09;0.88;;;0.57;;
32533;SDS011;18973;48.580;8.912;2023-08-06T13:11:35;0.40;;;0.40;;
32533;SDS011;18973;48.580;8.912;2023-08-06T13:14:06;3.20;;;0.63;;
32533;SDS011;18973;48.580;8.912;2023-08-06T13:16:35;0.68;;;0.60;;
32533;SDS011;18973;48.580;8.912;2023-08-06T13:19:03;0.63;;;0.38;;
32533;SDS011;18973;48.580;8.912;2023-08-06T13:21:33;0.65;;;0.60;;
32533;SDS011;18973;48.580;8.912;2023-08-06T13:24:01;3.28;;;0.68;;
32533;SDS011;18973;48.580;8.912;2023-08-06T13:26:28;1.85;;;0.75;;
32533;SDS011;18973;48.580;8.912;2023-08-06T13:28:54;0.55;;;0.38;;
32533;SDS011;18973;48.580;8.912;2023-08-06T13:31:21;1.17;;;0.50;;
32533;SDS011;18973;48.580;8.912;2023-08-06T13:33:47;0.63;;;0.50;;
32533;SDS011;18973;48.580;8.912;2023-08-06T13:36:15;0.95;;;0.43;;
32533;SDS011;18973;48.580;8.912;2023-08-06T13:38:43;4.45;;;0.60;;
32533;SDS011;18973;48.580;8.912;2023-08-06T13:41:09;0.80;;;0.50;;
32533;SDS011;18973;48.580;8.912;2023-08-06T13:43:34;2.72;;;0.40;;
32533;SDS011;18973;48.580;8.912;2023-08-06T13:46:00;3.42;;;0.60;;
32533;SDS011;18973;48.580;8.912;2023-08-06T13:48:26;0.90;;;0.50;;
32533;SDS011;18973;48.580;8.912;2023-08-06T13:50:52;0.95;;;0.50;;
32533;SDS011;18973;48.580;8.912;2023-08-06T13:53:17;0.47;;;0.30;;
32533;SDS011;18973;48.580;8.912;2023-08-06T13:55:43;2.33;;;0.50;;
32533;SDS011;18973;48.580;8.912;2023-08-06T13:58:09;3.65;;;0.32;;
32533;SDS011;18973;48.580;8.912;2023-08-06T14:00:37;0.77;;;0.40;;
32533;SDS011;18973;48.580;8.912;2023-08-06T14:03:03;0.40;;;0.40;;
32533;SDS011;18973;48.580;8.912;2023-08-06T14:05:29;1.55;;;0.68;;
32533;SDS011;18973;48.580;8.912;2023-08-06T14:07:54;0.93;;;0.40;;
32533;SDS011;18973;48.580;8.912;2023-08-06T14:10:20;0.95;;;0.40;;
32533;SDS011;18973;48.580;8.912;2023-08-06T14:12:46;2.05;;;0.68;;
32533;SDS011;18973;48.580;8.912;2023-08-06T14:15:14;1.65;;;0.60;;
32533;SDS011;18973;48.580;8.912;2023-08-06T14:17:39;2.25;;;0.73;;
32533;SDS011;18973;48.580;8.912;2023-08-06T14:20:06;1.95;;;0.30;;
32533;SDS011;18973;48.580;8.912;2023-08-06T14:22:34;0.63;;;0.38;;
32533;SDS011;18973;48.580;8.912;2023-08-06T14:25:00;1.75;;;0.50;;
32533;SDS011;18973;48.580;8.912;2023-08-06T14:27:25;1.27;;;0.60;;
32533;SDS011;18973;48.580;8.912;2023-08-06T14:29:51;1.52;;;0.50;;
32533;SDS011;18973;48.580;8.912;2023-08-06T14:32:17;1.13;;;0.40;;
32533;SDS011;18973;48.580;8.912;2023-08-06T14:34:43;0.90;;;0.57;;
32533;SDS011;18973;48.580;8.912;2023-08-06T14:37:12;0.75;;;0.30;;
32533;SDS011;18973;48.580;8.912;2023-08-06T14:39:38;0.60;;;0.50;;
32533;SDS011;18973;48.580;8.912;2023-08-06T14:42:04;1.13;;;0.40;;
32533;SDS011;18973;48.580;8.912;2023-08-06T14:44:30;0.95;;;0.60;;
32533;SDS011;18973;48.580;8.912;2023-08-06T14:46:56;1.52;;;0.82;;
32533;SDS011;18973;48.580;8.912;2023-08-06T14:49:22;0.38;;;0.30;;
32533;SDS011;18973;48.580;8.912;2023-08-06T14:51:48;0.40;;;0.40;;
32533;SDS011;18973;48.580;8.912;2023-08-06T14:54:14;0.32;;;0.32;;
32533;SDS011;18973;48.580;8.912;2023-08-06T14:56:40;2.53;;;0.38;;
32533;SDS011;18973;48.580;8.912;2023-08-06T14:59:06;0.98;;;0.40;;